Terminal Aerodrome Forecast
Issued by NWS

Home | Current Version | Previous Version | Text Only | Print | Product List | Glossary On
Versions: 1 2 3 4 5 6 7 8 9 10 11 12 13 14 15 16 17 18 19 20 21 22 23 24 25 26 27 28 29 30 31 32 33 34
363
FTUS41 KOKX 242340
TAFGON
TAF
KGON 242340Z 2500/2524 13007KT P6SM OVC050
     FM250500 10010KT 6SM -RA SCT025 OVC045
     FM250700 10012KT 5SM -RA SCT006 OVC015
     FM251100 10014G20KT 3SM RA BR OVC006
      TEMPO 2513/2517 1SM +RA BR
     FM251700 12018G23KT 2SM SHRA BR OVC006
     FM252100 14007KT 3SM -SHRA BR OVC006=

USA.gov is the U.S. government's official web portal to all federal, state and local government web resources and services.